sensor_id;sensor_type;location;lat;lon;timestamp;P1;durP1;ratioP1;P2;durP2;ratioP2
77798;SDS011;66989;50.426;15.352;2023-02-08T00:00:48;29.98;;;14.93;;
77798;SDS011;66989;50.426;15.352;2023-02-08T00:03:13;27.23;;;11.13;;
77798;SDS011;66989;50.426;15.352;2023-02-08T00:05:38;31.00;;;14.43;;
77798;SDS011;66989;50.426;15.352;2023-02-08T00:08:04;29.25;;;14.18;;
77798;SDS011;66989;50.426;15.352;2023-02-08T00:10:30;27.27;;;12.57;;
77798;SDS011;66989;50.426;15.352;2023-02-08T00:12:55;29.70;;;13.20;;
77798;SDS011;66989;50.426;15.352;2023-02-08T00:15:21;28.98;;;12.38;;
77798;SDS011;66989;50.426;15.352;2023-02-08T00:17:47;27.48;;;11.80;;
77798;SDS011;66989;50.426;15.352;2023-02-08T00:20:12;27.90;;;12.50;;
77798;SDS011;66989;50.426;15.352;2023-02-08T00:22:38;25.00;;;12.57;;
77798;SDS011;66989;50.426;15.352;2023-02-08T00:25:07;23.30;;;11.10;;
77798;SDS011;66989;50.426;15.352;2023-02-08T00:27:34;32.60;;;14.82;;
77798;SDS011;66989;50.426;15.352;2023-02-08T00:29:59;31.92;;;18.55;;
77798;SDS011;66989;50.426;15.352;2023-02-08T00:32:25;26.83;;;13.03;;
77798;SDS011;66989;50.426;15.352;2023-02-08T00:34:50;28.92;;;13.90;;
77798;SDS011;66989;50.426;15.352;2023-02-08T00:37:15;28.58;;;14.35;;
77798;SDS011;66989;50.426;15.352;2023-02-08T00:39:41;32.42;;;14.98;;
77798;SDS011;66989;50.426;15.352;2023-02-08T00:42:07;33.47;;;14.82;;
77798;SDS011;66989;50.426;15.352;2023-02-08T00:44:32;29.52;;;15.13;;
77798;SDS011;66989;50.426;15.352;2023-02-08T00:46:57;36.22;;;15.13;;
77798;SDS011;66989;50.426;15.352;2023-02-08T00:49:23;30.90;;;14.02;;
77798;SDS011;66989;50.426;15.352;2023-02-08T00:51:49;30.45;;;13.50;;
77798;SDS011;66989;50.426;15.352;2023-02-08T00:54:15;31.43;;;14.10;;
77798;SDS011;66989;50.426;15.352;2023-02-08T00:56:41;31.25;;;14.88;;
77798;SDS011;66989;50.426;15.352;2023-02-08T00:59:07;30.13;;;13.88;;
77798;SDS011;66989;50.426;15.352;2023-02-08T01:01:32;34.87;;;16.13;;
77798;SDS011;66989;50.426;15.352;2023-02-08T01:03:58;30.42;;;14.80;;
77798;SDS011;66989;50.426;15.352;2023-02-08T01:06:23;30.53;;;15.00;;
77798;SDS011;66989;50.426;15.352;2023-02-08T01:08:48;31.40;;;14.80;;
77798;SDS011;66989;50.426;15.352;2023-02-08T01:11:15;27.88;;;15.30;;
77798;SDS011;66989;50.426;15.352;2023-02-08T01:13:43;37.03;;;16.35;;
77798;SDS011;66989;50.426;15.352;2023-02-08T01:16:10;31.27;;;15.55;;
77798;SDS011;66989;50.426;15.352;2023-02-08T01:18:41;32.63;;;15.40;;
77798;SDS011;66989;50.426;15.352;2023-02-08T01:21:12;32.08;;;14.40;;
77798;SDS011;66989;50.426;15.352;2023-02-08T01:23:40;35.80;;;15.18;;
77798;SDS011;66989;50.426;15.352;2023-02-08T01:26:07;29.33;;;14.05;;
77798;SDS011;66989;50.426;15.352;2023-02-08T01:28:33;27.23;;;14.85;;
77798;SDS011;66989;50.426;15.352;2023-02-08T01:30:59;31.67;;;15.90;;
77798;SDS011;66989;50.426;15.352;2023-02-08T01:33:24;29.40;;;15.93;;
77798;SDS011;66989;50.426;15.352;2023-02-08T01:35:53;27.73;;;13.90;;
77798;SDS011;66989;50.426;15.352;2023-02-08T01:38:19;30.27;;;14.13;;
77798;SDS011;66989;50.426;15.352;2023-02-08T01:40:44;32.33;;;15.15;;
77798;SDS011;66989;50.426;15.352;2023-02-08T01:43:18;32.47;;;15.93;;
77798;SDS011;66989;50.426;15.352;2023-02-08T01:45:47;26.50;;;13.45;;
77798;SDS011;66989;50.426;15.352;2023-02-08T01:48:14;30.77;;;14.23;;
77798;SDS011;66989;50.426;15.352;2023-02-08T01:50:59;32.45;;;16.27;;
77798;SDS011;66989;50.426;15.352;2023-02-08T01:53:35;30.33;;;13.43;;
77798;SDS011;66989;50.426;15.352;2023-02-08T01:56:02;32.08;;;15.38;;
77798;SDS011;66989;50.426;15.352;2023-02-08T01:58:32;35.08;;;15.65;;
77798;SDS011;66989;50.426;15.352;2023-02-08T02:01:01;28.83;;;14.73;;
77798;SDS011;66989;50.426;15.352;2023-02-08T02:03:27;28.65;;;13.73;;
77798;SDS011;66989;50.426;15.352;2023-02-08T02:06:03;28.33;;;13.68;;
77798;SDS011;66989;50.426;15.352;2023-02-08T02:08:37;37.10;;;15.57;;
77798;SDS011;66989;50.426;15.352;2023-02-08T02:11:06;32.50;;;14.85;;
77798;SDS011;66989;50.426;15.352;2023-02-08T02:13:32;32.60;;;14.13;;
77798;SDS011;66989;50.426;15.352;2023-02-08T02:15:58;32.35;;;14.68;;
77798;SDS011;66989;50.426;15.352;2023-02-08T02:18:28;31.70;;;13.93;;
77798;SDS011;66989;50.426;15.352;2023-02-08T02:34:47;31.85;;;13.20;;
77798;SDS011;66989;50.426;15.352;2023-02-08T02:49:04;28.00;;;13.07;;
77798;SDS011;66989;50.426;15.352;2023-02-08T02:54:18;23.05;;;10.90;;
77798;SDS011;66989;50.426;15.352;2023-02-08T02:56:49;24.05;;;11.52;;
77798;SDS011;66989;50.426;15.352;2023-02-08T02:59:19;28.80;;;12.45;;
77798;SDS011;66989;50.426;15.352;2023-02-08T03:01:46;23.23;;;12.52;;
77798;SDS011;66989;50.426;15.352;2023-02-08T03:12:59;31.80;;;14.02;;
77798;SDS011;66989;50.426;15.352;2023-02-08T03:21:11;31.90;;;13.65;;
77798;SDS011;66989;50.426;15.352;2023-02-08T03:24:01;26.92;;;11.98;;
77798;SDS011;66989;50.426;15.352;2023-02-08T03:26:37;28.10;;;14.23;;
77798;SDS011;66989;50.426;15.352;2023-02-08T03:32:27;27.88;;;14.07;;
77798;SDS011;66989;50.426;15.352;2023-02-08T03:41:08;27.40;;;11.75;;
77798;SDS011;66989;50.426;15.352;2023-02-08T03:43:17;26.13;;;12.50;;
77798;SDS011;66989;50.426;15.352;2023-02-08T03:45:49;31.65;;;13.13;;
77798;SDS011;66989;50.426;15.352;2023-02-08T03:48:19;27.70;;;13.30;;
77798;SDS011;66989;50.426;15.352;2023-02-08T03:50:48;25.35;;;12.50;;
77798;SDS011;66989;50.426;15.352;2023-02-08T03:53:17;30.00;;;15.23;;
77798;SDS011;66989;50.426;15.352;2023-02-08T03:55:46;35.00;;;15.00;;
77798;SDS011;66989;50.426;15.352;2023-02-08T04:00:45;31.63;;;15.60;;
77798;SDS011;66989;50.426;15.352;2023-02-08T04:03:19;35.55;;;16.23;;
77798;SDS011;66989;50.426;15.352;2023-02-08T04:05:48;27.50;;;12.63;;
77798;SDS011;66989;50.426;15.352;2023-02-08T04:08:14;35.15;;;15.25;;
77798;SDS011;66989;50.426;15.352;2023-02-08T04:10:39;30.90;;;13.52;;
77798;SDS011;66989;50.426;15.352;2023-02-08T04:13:05;29.63;;;14.20;;
77798;SDS011;66989;50.426;15.352;2023-02-08T04:15:30;35.90;;;15.80;;
77798;SDS011;66989;50.426;15.352;2023-02-08T04:17:56;33.00;;;14.70;;
77798;SDS011;66989;50.426;15.352;2023-02-08T04:20:21;30.77;;;15.90;;
77798;SDS011;66989;50.426;15.352;2023-02-08T04:22:47;27.00;;;11.50;;
77798;SDS011;66989;50.426;15.352;2023-02-08T04:25:12;29.10;;;15.60;;
77798;SDS011;66989;50.426;15.352;2023-02-08T04:27:38;33.28;;;15.13;;
77798;SDS011;66989;50.426;15.352;2023-02-08T04:30:03;31.38;;;15.15;;
77798;SDS011;66989;50.426;15.352;2023-02-08T04:32:29;25.60;;;10.77;;
77798;SDS011;66989;50.426;15.352;2023-02-08T04:34:55;32.33;;;14.30;;
77798;SDS011;66989;50.426;15.352;2023-02-08T04:37:21;28.15;;;13.90;;
77798;SDS011;66989;50.426;15.352;2023-02-08T04:39:46;31.48;;;14.73;;
77798;SDS011;66989;50.426;15.352;2023-02-08T04:42:11;28.17;;;12.73;;
77798;SDS011;66989;50.426;15.352;2023-02-08T04:44:37;28.73;;;13.82;;
77798;SDS011;66989;50.426;15.352;2023-02-08T04:47:02;27.30;;;13.33;;
77798;SDS011;66989;50.426;15.352;2023-02-08T04:49:28;37.83;;;16.77;;
77798;SDS011;66989;50.426;15.352;2023-02-08T04:51:53;35.67;;;16.73;;
77798;SDS011;66989;50.426;15.352;2023-02-08T04:54:18;25.07;;;10.83;;
77798;SDS011;66989;50.426;15.352;2023-02-08T04:56:44;25.40;;;12.43;;
77798;SDS011;66989;50.426;15.352;2023-02-08T04:59:09;29.07;;;13.20;;
77798;SDS011;66989;50.426;15.352;2023-02-08T05:01:34;40.23;;;17.80;;
77798;SDS011;66989;50.426;15.352;2023-02-08T05:04:00;38.05;;;21.10;;
77798;SDS011;66989;50.426;15.352;2023-02-08T05:06:25;35.90;;;17.38;;
77798;SDS011;66989;50.426;15.352;2023-02-08T05:08:51;28.33;;;12.73;;
77798;SDS011;66989;50.426;15.352;2023-02-08T05:11:23;23.40;;;12.80;;
77798;SDS011;66989;50.426;15.352;2023-02-08T05:13:49;32.45;;;15.57;;
77798;SDS011;66989;50.426;15.352;2023-02-08T05:16:15;32.58;;;16.42;;
77798;SDS011;66989;50.426;15.352;2023-02-08T05:18:41;26.42;;;13.48;;
77798;SDS011;66989;50.426;15.352;2023-02-08T05:21:06;29.58;;;15.55;;
77798;SDS011;66989;50.426;15.352;2023-02-08T05:23:32;28.75;;;17.00;;
77798;SDS011;66989;50.426;15.352;2023-02-08T05:25:58;34.45;;;15.88;;
77798;SDS011;66989;50.426;15.352;2023-02-08T05:28:24;30.75;;;14.40;;
77798;SDS011;66989;50.426;15.352;2023-02-08T05:30:50;32.88;;;16.65;;
77798;SDS011;66989;50.426;15.352;2023-02-08T05:33:16;40.92;;;17.92;;
77798;SDS011;66989;50.426;15.352;2023-02-08T05:35:45;31.73;;;16.80;;
77798;SDS011;66989;50.426;15.352;2023-02-08T05:38:11;32.97;;;15.88;;
77798;SDS011;66989;50.426;15.352;2023-02-08T05:40:36;32.97;;;16.08;;
77798;SDS011;66989;50.426;15.352;2023-02-08T05:43:01;33.47;;;15.53;;
77798;SDS011;66989;50.426;15.352;2023-02-08T05:45:27;29.77;;;16.73;;
77798;SDS011;66989;50.426;15.352;2023-02-08T05:47:52;33.30;;;16.02;;
77798;SDS011;66989;50.426;15.352;2023-02-08T05:50:18;35.28;;;15.43;;
77798;SDS011;66989;50.426;15.352;2023-02-08T05:52:45;31.55;;;15.40;;
77798;SDS011;66989;50.426;15.352;2023-02-08T05:55:10;30.50;;;15.20;;
77798;SDS011;66989;50.426;15.352;2023-02-08T05:57:35;30.50;;;15.07;;
77798;SDS011;66989;50.426;15.352;2023-02-08T06:00:03;32.03;;;14.93;;
77798;SDS011;66989;50.426;15.352;2023-02-08T06:02:30;32.28;;;17.27;;
77798;SDS011;66989;50.426;15.352;2023-02-08T06:04:56;31.05;;;15.38;;
77798;SDS011;66989;50.426;15.352;2023-02-08T06:07:22;34.38;;;17.25;;
77798;SDS011;66989;50.426;15.352;2023-02-08T06:09:47;34.47;;;16.33;;
77798;SDS011;66989;50.426;15.352;2023-02-08T06:12:12;30.65;;;15.55;;
77798;SDS011;66989;50.426;15.352;2023-02-08T06:14:38;32.53;;;15.70;;
77798;SDS011;66989;50.426;15.352;2023-02-08T06:17:03;33.50;;;15.77;;
77798;SDS011;66989;50.426;15.352;2023-02-08T06:19:28;29.07;;;14.57;;
77798;SDS011;66989;50.426;15.352;2023-02-08T06:21:54;28.83;;;14.27;;
77798;SDS011;66989;50.426;15.352;2023-02-08T06:24:19;32.35;;;16.90;;
77798;SDS011;66989;50.426;15.352;2023-02-08T06:26:45;29.05;;;14.30;;
77798;SDS011;66989;50.426;15.352;2023-02-08T06:29:10;30.83;;;14.07;;
77798;SDS011;66989;50.426;15.352;2023-02-08T06:31:37;28.17;;;13.03;;
77798;SDS011;66989;50.426;15.352;2023-02-08T06:34:02;31.02;;;13.90;;
77798;SDS011;66989;50.426;15.352;2023-02-08T06:36:27;29.88;;;13.63;;
77798;SDS011;66989;50.426;15.352;2023-02-08T06:38:53;22.17;;;10.98;;
77798;SDS011;66989;50.426;15.352;2023-02-08T06:41:18;28.30;;;13.00;;
77798;SDS011;66989;50.426;15.352;2023-02-08T06:43:44;31.75;;;12.98;;
77798;SDS011;66989;50.426;15.352;2023-02-08T06:46:10;27.80;;;12.18;;
77798;SDS011;66989;50.426;15.352;2023-02-08T06:48:36;30.05;;;13.43;;
77798;SDS011;66989;50.426;15.352;2023-02-08T06:51:02;25.85;;;12.75;;
77798;SDS011;66989;50.426;15.352;2023-02-08T06:53:28;28.48;;;13.15;;
77798;SDS011;66989;50.426;15.352;2023-02-08T06:55:54;32.78;;;13.55;;
77798;SDS011;66989;50.426;15.352;2023-02-08T06:58:19;30.95;;;13.85;;
77798;SDS011;66989;50.426;15.352;2023-02-08T07:00:44;32.40;;;14.48;;
77798;SDS011;66989;50.426;15.352;2023-02-08T07:03:11;34.40;;;14.18;;
77798;SDS011;66989;50.426;15.352;2023-02-08T07:05:37;27.27;;;14.45;;
77798;SDS011;66989;50.426;15.352;2023-02-08T07:08:03;33.30;;;14.98;;
77798;SDS011;66989;50.426;15.352;2023-02-08T07:10:30;30.38;;;13.65;;
77798;SDS011;66989;50.426;15.352;2023-02-08T07:12:56;27.20;;;12.15;;
77798;SDS011;66989;50.426;15.352;2023-02-08T07:15:22;23.70;;;11.23;;
77798;SDS011;66989;50.426;15.352;2023-02-08T07:17:47;27.33;;;11.30;;
77798;SDS011;66989;50.426;15.352;2023-02-08T07:20:13;23.97;;;11.10;;
77798;SDS011;66989;50.426;15.352;2023-02-08T07:22:38;22.42;;;10.23;;
77798;SDS011;66989;50.426;15.352;2023-02-08T07:25:05;22.95;;;10.57;;
77798;SDS011;66989;50.426;15.352;2023-02-08T07:27:31;19.60;;;10.18;;
77798;SDS011;66989;50.426;15.352;2023-02-08T07:29:57;19.83;;;10.73;;
77798;SDS011;66989;50.426;15.352;2023-02-08T07:32:23;20.05;;;10.07;;
77798;SDS011;66989;50.426;15.352;2023-02-08T07:34:48;22.33;;;9.98;;
77798;SDS011;66989;50.426;15.352;2023-02-08T07:37:14;21.10;;;9.90;;
77798;SDS011;66989;50.426;15.352;2023-02-08T07:39:39;18.40;;;10.50;;
77798;SDS011;66989;50.426;15.352;2023-02-08T07:42:05;19.83;;;9.98;;
77798;SDS011;66989;50.426;15.352;2023-02-08T07:44:32;19.60;;;9.95;;
77798;SDS011;66989;50.426;15.352;2023-02-08T07:46:58;18.25;;;9.13;;
77798;SDS011;66989;50.426;15.352;2023-02-08T07:49:25;18.17;;;9.20;;
77798;SDS011;66989;50.426;15.352;2023-02-08T07:51:51;15.40;;;9.35;;
77798;SDS011;66989;50.426;15.352;2023-02-08T07:54:16;18.23;;;9.55;;
77798;SDS011;66989;50.426;15.352;2023-02-08T07:56:41;18.45;;;9.55;;
77798;SDS011;66989;50.426;15.352;2023-02-08T07:59:07;14.27;;;7.78;;
77798;SDS011;66989;50.426;15.352;2023-02-08T08:01:32;14.32;;;8.02;;
77798;SDS011;66989;50.426;15.352;2023-02-08T08:03:58;14.23;;;7.78;;
77798;SDS011;66989;50.426;15.352;2023-02-08T08:06:24;15.47;;;7.70;;
77798;SDS011;66989;50.426;15.352;2023-02-08T08:08:49;17.75;;;9.32;;
77798;SDS011;66989;50.426;15.352;2023-02-08T08:13:42;12.40;;;7.35;;
77798;SDS011;66989;50.426;15.352;2023-02-08T08:16:08;14.57;;;8.90;;
77798;SDS011;66989;50.426;15.352;2023-02-08T08:18:34;13.18;;;8.02;;
77798;SDS011;66989;50.426;15.352;2023-02-08T08:21:00;14.15;;;8.57;;
77798;SDS011;66989;50.426;15.352;2023-02-08T08:23:26;16.60;;;7.15;;
77798;SDS011;66989;50.426;15.352;2023-02-08T08:25:53;13.18;;;7.35;;
77798;SDS011;66989;50.426;15.352;2023-02-08T08:28:18;15.18;;;7.32;;
77798;SDS011;66989;50.426;15.352;2023-02-08T08:30:44;12.15;;;7.45;;
77798;SDS011;66989;50.426;15.352;2023-02-08T08:33:10;13.80;;;8.25;;
77798;SDS011;66989;50.426;15.352;2023-02-08T08:35:39;15.57;;;9.45;;
77798;SDS011;66989;50.426;15.352;2023-02-08T08:38:06;16.40;;;9.77;;
77798;SDS011;66989;50.426;15.352;2023-02-08T08:40:32;14.05;;;9.57;;
77798;SDS011;66989;50.426;15.352;2023-02-08T08:42:57;15.73;;;10.93;;
77798;SDS011;66989;50.426;15.352;2023-02-08T08:45:22;15.00;;;11.07;;
77798;SDS011;66989;50.426;15.352;2023-02-08T08:47:48;16.98;;;9.82;;
77798;SDS011;66989;50.426;15.352;2023-02-08T08:50:13;16.48;;;10.43;;
77798;SDS011;66989;50.426;15.352;2023-02-08T08:52:42;17.95;;;10.15;;
77798;SDS011;66989;50.426;15.352;2023-02-08T08:55:07;16.27;;;10.15;;
77798;SDS011;66989;50.426;15.352;2023-02-08T08:57:33;17.88;;;10.45;;
77798;SDS011;66989;50.426;15.352;2023-02-08T08:59:59;15.30;;;10.15;;
77798;SDS011;66989;50.426;15.352;2023-02-08T09:02:24;18.00;;;11.00;;
77798;SDS011;66989;50.426;15.352;2023-02-08T09:04:50;19.55;;;10.93;;
77798;SDS011;66989;50.426;15.352;2023-02-08T09:07:15;19.00;;;12.68;;
77798;SDS011;66989;50.426;15.352;2023-02-08T09:09:43;18.65;;;11.30;;
77798;SDS011;66989;50.426;15.352;2023-02-08T09:12:12;19.50;;;11.60;;
77798;SDS011;66989;50.426;15.352;2023-02-08T09:14:42;18.73;;;12.73;;
77798;SDS011;66989;50.426;15.352;2023-02-08T09:17:09;15.43;;;10.65;;
77798;SDS011;66989;50.426;15.352;2023-02-08T09:19:35;16.10;;;10.10;;
77798;SDS011;66989;50.426;15.352;2023-02-08T09:22:00;15.68;;;9.82;;
77798;SDS011;66989;50.426;15.352;2023-02-08T09:24:26;15.10;;;10.45;;
77798;SDS011;66989;50.426;15.352;2023-02-08T09:26:51;15.55;;;10.52;;
77798;SDS011;66989;50.426;15.352;2023-02-08T09:29:17;16.83;;;10.00;;
77798;SDS011;66989;50.426;15.352;2023-02-08T09:31:42;18.08;;;10.38;;
77798;SDS011;66989;50.426;15.352;2023-02-08T09:34:08;17.95;;;11.40;;
77798;SDS011;66989;50.426;15.352;2023-02-08T09:36:35;15.32;;;10.32;;
77798;SDS011;66989;50.426;15.352;2023-02-08T09:39:05;14.77;;;10.38;;
77798;SDS011;66989;50.426;15.352;2023-02-08T09:47:13;15.98;;;11.05;;
77798;SDS011;66989;50.426;15.352;2023-02-08T09:52:24;11.70;;;8.18;;
77798;SDS011;66989;50.426;15.352;2023-02-08T09:54:57;12.35;;;9.18;;
77798;SDS011;66989;50.426;15.352;2023-02-08T09:57:30;12.02;;;8.07;;
77798;SDS011;66989;50.426;15.352;2023-02-08T10:00:05;12.02;;;8.57;;
77798;SDS011;66989;50.426;15.352;2023-02-08T10:02:38;10.98;;;8.25;;
77798;SDS011;66989;50.426;15.352;2023-02-08T10:05:11;13.45;;;9.27;;
77798;SDS011;66989;50.426;15.352;2023-02-08T10:07:39;14.48;;;8.30;;
77798;SDS011;66989;50.426;15.352;2023-02-08T10:10:13;15.25;;;9.13;;
77798;SDS011;66989;50.426;15.352;2023-02-08T10:12:50;12.50;;;6.95;;
77798;SDS011;66989;50.426;15.352;2023-02-08T10:15:32;15.90;;;8.40;;
77798;SDS011;66989;50.426;15.352;2023-02-08T10:20:51;13.05;;;8.57;;
77798;SDS011;66989;50.426;15.352;2023-02-08T10:29:17;14.20;;;8.60;;
77798;SDS011;66989;50.426;15.352;2023-02-08T10:34:52;13.00;;;7.32;;
77798;SDS011;66989;50.426;15.352;2023-02-08T10:37:27;13.68;;;7.65;;
77798;SDS011;66989;50.426;15.352;2023-02-08T10:39:56;14.60;;;9.90;;
77798;SDS011;66989;50.426;15.352;2023-02-08T10:42:25;22.30;;;8.05;;
77798;SDS011;66989;50.426;15.352;2023-02-08T10:50:18;11.82;;;6.30;;
77798;SDS011;66989;50.426;15.352;2023-02-08T10:52:49;10.90;;;5.03;;
77798;SDS011;66989;50.426;15.352;2023-02-08T10:55:16;10.85;;;5.65;;
77798;SDS011;66989;50.426;15.352;2023-02-08T10:57:44;9.63;;;4.97;;
77798;SDS011;66989;50.426;15.352;2023-02-08T11:02:44;10.55;;;5.90;;
77798;SDS011;66989;50.426;15.352;2023-02-08T11:07:42;10.07;;;5.15;;
77798;SDS011;66989;50.426;15.352;2023-02-08T11:12:43;10.15;;;5.28;;
77798;SDS011;66989;50.426;15.352;2023-02-08T11:18:04;11.50;;;4.88;;
77798;SDS011;66989;50.426;15.352;2023-02-08T11:20:35;7.57;;;4.22;;
77798;SDS011;66989;50.426;15.352;2023-02-08T11:23:04;11.43;;;5.07;;
77798;SDS011;66989;50.426;15.352;2023-02-08T11:25:41;10.50;;;5.18;;
77798;SDS011;66989;50.426;15.352;2023-02-08T11:28:20;12.75;;;5.72;;
77798;SDS011;66989;50.426;15.352;2023-02-08T11:30:54;8.15;;;4.72;;
77798;SDS011;66989;50.426;15.352;2023-02-08T11:33:21;9.23;;;4.40;;
77798;SDS011;66989;50.426;15.352;2023-02-08T11:35:56;11.27;;;5.72;;
77798;SDS011;66989;50.426;15.352;2023-02-08T11:38:24;8.50;;;4.30;;
77798;SDS011;66989;50.426;15.352;2023-02-08T11:40:52;10.68;;;4.82;;
77798;SDS011;66989;50.426;15.352;2023-02-08T11:43:21;9.05;;;4.50;;
77798;SDS011;66989;50.426;15.352;2023-02-08T11:45:55;8.85;;;4.70;;
77798;SDS011;66989;50.426;15.352;2023-02-08T11:48:24;11.30;;;6.15;;
77798;SDS011;66989;50.426;15.352;2023-02-08T11:50:58;9.45;;;4.68;;
77798;SDS011;66989;50.426;15.352;2023-02-08T11:53:33;7.53;;;4.30;;
77798;SDS011;66989;50.426;15.352;2023-02-08T11:56:03;8.25;;;4.13;;
77798;SDS011;66989;50.426;15.352;2023-02-08T11:58:39;13.38;;;7.30;;
77798;SDS011;66989;50.426;15.352;2023-02-08T12:01:18;11.82;;;5.72;;
77798;SDS011;66989;50.426;15.352;2023-02-08T12:03:44;10.07;;;5.97;;
77798;SDS011;66989;50.426;15.352;2023-02-08T12:14:15;10.77;;;6.30;;
77798;SDS011;66989;50.426;15.352;2023-02-08T12:17:08;10.48;;;4.85;;
77798;SDS011;66989;50.426;15.352;2023-02-08T12:22:38;16.42;;;7.90;;
77798;SDS011;66989;50.426;15.352;2023-02-08T12:25:14;17.83;;;8.27;;
77798;SDS011;66989;50.426;15.352;2023-02-08T12:28:01;14.18;;;6.97;;
77798;SDS011;66989;50.426;15.352;2023-02-08T12:30:31;14.60;;;6.68;;
77798;SDS011;66989;50.426;15.352;2023-02-08T12:36:07;9.70;;;5.72;;
77798;SDS011;66989;50.426;15.352;2023-02-08T12:44:37;8.60;;;4.65;;
77798;SDS011;66989;50.426;15.352;2023-02-08T12:50:19;14.30;;;5.68;;
77798;SDS011;66989;50.426;15.352;2023-02-08T12:52:53;10.27;;;4.68;;
77798;SDS011;66989;50.426;15.352;2023-02-08T12:57:51;11.50;;;6.55;;
77798;SDS011;66989;50.426;15.352;2023-02-08T13:03:10;13.93;;;6.15;;
77798;SDS011;66989;50.426;15.352;2023-02-08T13:05:38;12.15;;;5.85;;
77798;SDS011;66989;50.426;15.352;2023-02-08T13:08:12;11.68;;;5.72;;
77798;SDS011;66989;50.426;15.352;2023-02-08T13:10:48;9.00;;;5.22;;
77798;SDS011;66989;50.426;15.352;2023-02-08T13:13:25;11.48;;;5.75;;
77798;SDS011;66989;50.426;15.352;2023-02-08T13:18:31;11.43;;;5.30;;
77798;SDS011;66989;50.426;15.352;2023-02-08T13:21:10;10.93;;;5.22;;
77798;SDS011;66989;50.426;15.352;2023-02-08T13:26:11;11.48;;;7.57;;
77798;SDS011;66989;50.426;15.352;2023-02-08T13:28:55;11.52;;;5.82;;
77798;SDS011;66989;50.426;15.352;2023-02-08T13:39:02;10.38;;;6.03;;
77798;SDS011;66989;50.426;15.352;2023-02-08T13:41:31;10.95;;;5.72;;
77798;SDS011;66989;50.426;15.352;2023-02-08T13:43:59;10.13;;;7.32;;
77798;SDS011;66989;50.426;15.352;2023-02-08T13:46:28;10.30;;;5.93;;
77798;SDS011;66989;50.426;15.352;2023-02-08T13:49:01;9.30;;;5.15;;
77798;SDS011;66989;50.426;15.352;2023-02-08T13:59:28;10.52;;;5.65;;
77798;SDS011;66989;50.426;15.352;2023-02-08T14:04:39;12.77;;;6.32;;
77798;SDS011;66989;50.426;15.352;2023-02-08T14:07:17;10.02;;;6.25;;
77798;SDS011;66989;50.426;15.352;2023-02-08T14:10:16;10.27;;;5.90;;
77798;SDS011;66989;50.426;15.352;2023-02-08T14:12:53;9.63;;;5.85;;
77798;SDS011;66989;50.426;15.352;2023-02-08T14:15:25;10.20;;;6.18;;
77798;SDS011;66989;50.426;15.352;2023-02-08T14:17:53;10.63;;;6.55;;
77798;SDS011;66989;50.426;15.352;2023-02-08T14:20:24;14.32;;;8.70;;
77798;SDS011;66989;50.426;15.352;2023-02-08T14:23:04;11.80;;;7.05;;
77798;SDS011;66989;50.426;15.352;2023-02-08T14:28:20;11.65;;;6.18;;
77798;SDS011;66989;50.426;15.352;2023-02-08T14:30:50;9.98;;;5.53;;
77798;SDS011;66989;50.426;15.352;2023-02-08T14:33:20;12.43;;;6.63;;
77798;SDS011;66989;50.426;15.352;2023-02-08T14:35:51;10.93;;;5.22;;
77798;SDS011;66989;50.426;15.352;2023-02-08T14:45:55;11.25;;;7.82;;
77798;SDS011;66989;50.426;15.352;2023-02-08T14:48:27;10.13;;;5.10;;
77798;SDS011;66989;50.426;15.352;2023-02-08T14:53:36;10.48;;;5.35;;
77798;SDS011;66989;50.426;15.352;2023-02-08T14:58:42;12.57;;;6.32;;
77798;SDS011;66989;50.426;15.352;2023-02-08T15:03:52;13.48;;;8.77;;
77798;SDS011;66989;50.426;15.352;2023-02-08T15:09:00;12.98;;;6.50;;
77798;SDS011;66989;50.426;15.352;2023-02-08T15:11:27;12.48;;;6.07;;
77798;SDS011;66989;50.426;15.352;2023-02-08T15:13:56;12.48;;;6.32;;
77798;SDS011;66989;50.426;15.352;2023-02-08T15:16:27;12.70;;;6.25;;
77798;SDS011;66989;50.426;15.352;2023-02-08T15:19:05;11.05;;;5.88;;
77798;SDS011;66989;50.426;15.352;2023-02-08T15:21:44;10.00;;;5.97;;
77798;SDS011;66989;50.426;15.352;2023-02-08T15:24:12;13.73;;;6.28;;
77798;SDS011;66989;50.426;15.352;2023-02-08T15:26:47;12.82;;;6.35;;
77798;SDS011;66989;50.426;15.352;2023-02-08T15:29:22;12.25;;;7.80;;
77798;SDS011;66989;50.426;15.352;2023-02-08T15:31:49;14.68;;;6.68;;
77798;SDS011;66989;50.426;15.352;2023-02-08T15:34:16;13.13;;;7.25;;
77798;SDS011;66989;50.426;15.352;2023-02-08T15:37:01;13.20;;;5.82;;
77798;SDS011;66989;50.426;15.352;2023-02-08T15:39:34;13.35;;;6.68;;
77798;SDS011;66989;50.426;15.352;2023-02-08T15:42:02;13.65;;;6.00;;
77798;SDS011;66989;50.426;15.352;2023-02-08T15:44:29;11.98;;;6.13;;
77798;SDS011;66989;50.426;15.352;2023-02-08T15:46:58;12.23;;;6.32;;
77798;SDS011;66989;50.426;15.352;2023-02-08T15:49:27;13.43;;;6.88;;
77798;SDS011;66989;50.426;15.352;2023-02-08T15:52:02;14.55;;;6.43;;
77798;SDS011;66989;50.426;15.352;2023-02-08T15:54:28;15.07;;;7.13;;
77798;SDS011;66989;50.426;15.352;2023-02-08T15:56:55;12.80;;;6.95;;
77798;SDS011;66989;50.426;15.352;2023-02-08T15:59:28;13.20;;;6.75;;
77798;SDS011;66989;50.426;15.352;2023-02-08T16:04:58;15.45;;;7.43;;
77798;SDS011;66989;50.426;15.352;2023-02-08T16:12:59;37.65;;;15.93;;
77798;SDS011;66989;50.426;15.352;2023-02-08T16:15:37;24.60;;;10.10;;
77798;SDS011;66989;50.426;15.352;2023-02-08T16:18:05;18.27;;;8.23;;
77798;SDS011;66989;50.426;15.352;2023-02-08T16:20:55;14.90;;;6.97;;
77798;SDS011;66989;50.426;15.352;2023-02-08T16:23:24;15.68;;;7.32;;
77798;SDS011;66989;50.426;15.352;2023-02-08T16:25:54;18.05;;;7.95;;
77798;SDS011;66989;50.426;15.352;2023-02-08T16:30:59;19.25;;;8.88;;
77798;SDS011;66989;50.426;15.352;2023-02-08T16:33:27;17.15;;;9.52;;
77798;SDS011;66989;50.426;15.352;2023-02-08T16:35:55;16.52;;;7.47;;
77798;SDS011;66989;50.426;15.352;2023-02-08T16:38:26;20.52;;;8.13;;
77798;SDS011;66989;50.426;15.352;2023-02-08T16:40:54;22.52;;;9.98;;
77798;SDS011;66989;50.426;15.352;2023-02-08T16:43:30;20.35;;;11.30;;
77798;SDS011;66989;50.426;15.352;2023-02-08T16:48:51;20.77;;;9.48;;
77798;SDS011;66989;50.426;15.352;2023-02-08T16:51:20;17.95;;;9.63;;
77798;SDS011;66989;50.426;15.352;2023-02-08T16:53:48;20.08;;;9.00;;
77798;SDS011;66989;50.426;15.352;2023-02-08T16:56:16;17.08;;;8.02;;
77798;SDS011;66989;50.426;15.352;2023-02-08T16:58:41;19.30;;;10.40;;
77798;SDS011;66989;50.426;15.352;2023-02-08T17:01:09;18.90;;;8.25;;
77798;SDS011;66989;50.426;15.352;2023-02-08T17:03:36;15.32;;;7.93;;
77798;SDS011;66989;50.426;15.352;2023-02-08T17:06:02;18.50;;;8.65;;
77798;SDS011;66989;50.426;15.352;2023-02-08T17:08:27;18.75;;;8.73;;
77798;SDS011;66989;50.426;15.352;2023-02-08T17:10:53;18.75;;;9.00;;
77798;SDS011;66989;50.426;15.352;2023-02-08T17:13:22;18.20;;;8.88;;
77798;SDS011;66989;50.426;15.352;2023-02-08T17:15:50;18.17;;;8.23;;
77798;SDS011;66989;50.426;15.352;2023-02-08T17:18:16;23.13;;;9.38;;
77798;SDS011;66989;50.426;15.352;2023-02-08T17:20:42;20.05;;;9.05;;
77798;SDS011;66989;50.426;15.352;2023-02-08T17:23:08;22.58;;;9.35;;